sensor_id;sensor_type;location;lat;lon;timestamp;P1;durP1;ratioP1;P2;durP2;ratioP2
71046;SDS011;58703;48.978;8.982;2023-08-08T00:01:33;1.33;;;0.80;;
71046;SDS011;58703;48.978;8.982;2023-08-08T00:04:00;0.60;;;0.57;;
71046;SDS011;58703;48.978;8.982;2023-08-08T00:06:26;1.60;;;0.50;;
71046;SDS011;58703;48.978;8.982;2023-08-08T00:08:59;0.52;;;0.40;;
71046;SDS011;58703;48.978;8.982;2023-08-08T00:11:24;0.50;;;0.30;;
71046;SDS011;58703;48.978;8.982;2023-08-08T00:13:50;0.88;;;0.55;;
71046;SDS011;58703;48.978;8.982;2023-08-08T00:16:15;2.90;;;0.43;;
71046;SDS011;58703;48.978;8.982;2023-08-08T00:18:41;3.47;;;0.60;;
71046;SDS011;58703;48.978;8.982;2023-08-08T00:21:07;0.60;;;0.40;;
71046;SDS011;58703;48.978;8.982;2023-08-08T00:23:32;3.33;;;0.73;;
71046;SDS011;58703;48.978;8.982;2023-08-08T00:25:58;2.53;;;1.03;;
71046;SDS011;58703;48.978;8.982;2023-08-08T00:28:24;4.20;;;1.15;;
71046;SDS011;58703;48.978;8.982;2023-08-08T00:30:50;3.53;;;1.02;;
71046;SDS011;58703;48.978;8.982;2023-08-08T00:33:15;2.43;;;1.00;;
71046;SDS011;58703;48.978;8.982;2023-08-08T00:35:42;2.83;;;1.27;;
71046;SDS011;58703;48.978;8.982;2023-08-08T00:38:08;2.63;;;1.10;;
71046;SDS011;58703;48.978;8.982;2023-08-08T00:40:33;2.50;;;1.10;;
71046;SDS011;58703;48.978;8.982;2023-08-08T00:42:59;1.97;;;1.20;;
71046;SDS011;58703;48.978;8.982;2023-08-08T00:45:26;1.70;;;1.05;;
71046;SDS011;58703;48.978;8.982;2023-08-08T00:47:52;2.03;;;1.17;;
71046;SDS011;58703;48.978;8.982;2023-08-08T00:50:18;1.60;;;1.25;;
71046;SDS011;58703;48.978;8.982;2023-08-08T00:52:45;2.07;;;1.03;;
71046;SDS011;58703;48.978;8.982;2023-08-08T00:55:11;1.15;;;0.90;;
71046;SDS011;58703;48.978;8.982;2023-08-08T00:57:37;1.05;;;0.82;;
71046;SDS011;58703;48.978;8.982;2023-08-08T01:00:08;4.68;;;1.15;;
71046;SDS011;58703;48.978;8.982;2023-08-08T01:02:35;1.83;;;1.20;;
71046;SDS011;58703;48.978;8.982;2023-08-08T01:05:02;2.00;;;0.90;;
71046;SDS011;58703;48.978;8.982;2023-08-08T01:07:30;2.80;;;1.00;;
71046;SDS011;58703;48.978;8.982;2023-08-08T01:10:33;2.15;;;0.85;;
71046;SDS011;58703;48.978;8.982;2023-08-08T01:13:23;1.70;;;1.60;;
71046;SDS011;58703;48.978;8.982;2023-08-08T01:15:50;1.23;;;1.00;;
71046;SDS011;58703;48.978;8.982;2023-08-08T01:18:18;1.55;;;0.80;;
71046;SDS011;58703;48.978;8.982;2023-08-08T01:20:44;1.17;;;0.77;;
71046;SDS011;58703;48.978;8.982;2023-08-08T01:25:41;7.17;;;1.10;;
71046;SDS011;58703;48.978;8.982;2023-08-08T01:28:08;3.45;;;0.90;;
71046;SDS011;58703;48.978;8.982;2023-08-08T01:30:34;1.70;;;1.00;;
71046;SDS011;58703;48.978;8.982;2023-08-08T01:33:00;2.63;;;1.10;;
71046;SDS011;58703;48.978;8.982;2023-08-08T01:35:28;3.58;;;1.10;;
71046;SDS011;58703;48.978;8.982;2023-08-08T01:38:19;5.47;;;1.20;;
71046;SDS011;58703;48.978;8.982;2023-08-08T01:40:54;1.48;;;1.00;;
71046;SDS011;58703;48.978;8.982;2023-08-08T01:43:22;5.95;;;1.20;;
71046;SDS011;58703;48.978;8.982;2023-08-08T01:45:50;1.40;;;1.20;;
71046;SDS011;58703;48.978;8.982;2023-08-08T01:48:15;1.02;;;0.80;;
71046;SDS011;58703;48.978;8.982;2023-08-08T01:50:41;1.77;;;1.37;;
71046;SDS011;58703;48.978;8.982;2023-08-08T01:53:08;1.20;;;0.90;;
71046;SDS011;58703;48.978;8.982;2023-08-08T01:55:33;4.20;;;1.50;;
71046;SDS011;58703;48.978;8.982;2023-08-08T01:57:59;2.10;;;1.50;;
71046;SDS011;58703;48.978;8.982;2023-08-08T02:00:24;2.07;;;1.20;;
71046;SDS011;58703;48.978;8.982;2023-08-08T02:02:50;2.28;;;1.25;;
71046;SDS011;58703;48.978;8.982;2023-08-08T02:05:16;1.77;;;1.20;;
71046;SDS011;58703;48.978;8.982;2023-08-08T02:07:41;4.63;;;1.10;;
71046;SDS011;58703;48.978;8.982;2023-08-08T02:10:07;1.85;;;1.00;;
71046;SDS011;58703;48.978;8.982;2023-08-08T02:12:32;1.77;;;1.20;;
71046;SDS011;58703;48.978;8.982;2023-08-08T02:14:58;5.17;;;0.90;;
71046;SDS011;58703;48.978;8.982;2023-08-08T02:17:24;4.53;;;1.35;;
71046;SDS011;58703;48.978;8.982;2023-08-08T02:19:52;2.90;;;1.20;;
71046;SDS011;58703;48.978;8.982;2023-08-08T02:22:18;2.28;;;1.20;;
71046;SDS011;58703;48.978;8.982;2023-08-08T02:24:44;2.40;;;1.20;;
71046;SDS011;58703;48.978;8.982;2023-08-08T02:27:11;3.60;;;1.40;;
71046;SDS011;58703;48.978;8.982;2023-08-08T02:29:37;5.20;;;1.40;;
71046;SDS011;58703;48.978;8.982;2023-08-08T02:32:02;3.17;;;1.53;;
71046;SDS011;58703;48.978;8.982;2023-08-08T02:34:29;4.45;;;1.55;;
71046;SDS011;58703;48.978;8.982;2023-08-08T02:36:55;5.63;;;1.83;;
71046;SDS011;58703;48.978;8.982;2023-08-08T02:39:20;4.03;;;1.50;;
71046;SDS011;58703;48.978;8.982;2023-08-08T02:41:46;2.90;;;1.60;;
71046;SDS011;58703;48.978;8.982;2023-08-08T02:44:12;2.67;;;1.75;;
71046;SDS011;58703;48.978;8.982;2023-08-08T02:46:37;1.27;;;1.17;;
71046;SDS011;58703;48.978;8.982;2023-08-08T02:49:05;2.00;;;1.50;;
71046;SDS011;58703;48.978;8.982;2023-08-08T02:51:32;1.27;;;1.00;;
71046;SDS011;58703;48.978;8.982;2023-08-08T02:53:58;2.38;;;1.00;;
71046;SDS011;58703;48.978;8.982;2023-08-08T02:56:24;1.87;;;1.67;;
71046;SDS011;58703;48.978;8.982;2023-08-08T02:58:49;3.43;;;1.43;;
71046;SDS011;58703;48.978;8.982;2023-08-08T03:01:15;2.33;;;1.30;;
71046;SDS011;58703;48.978;8.982;2023-08-08T03:03:41;1.80;;;1.40;;
71046;SDS011;58703;48.978;8.982;2023-08-08T03:06:07;5.07;;;2.10;;
71046;SDS011;58703;48.978;8.982;2023-08-08T03:08:33;1.80;;;1.42;;
71046;SDS011;58703;48.978;8.982;2023-08-08T03:10:59;2.03;;;1.60;;
71046;SDS011;58703;48.978;8.982;2023-08-08T03:13:25;2.17;;;1.42;;
71046;SDS011;58703;48.978;8.982;2023-08-08T03:15:50;1.30;;;1.20;;
71046;SDS011;58703;48.978;8.982;2023-08-08T03:18:16;1.65;;;1.27;;
71046;SDS011;58703;48.978;8.982;2023-08-08T03:20:41;1.33;;;0.97;;
71046;SDS011;58703;48.978;8.982;2023-08-08T03:23:07;2.17;;;1.37;;
71046;SDS011;58703;48.978;8.982;2023-08-08T03:25:32;3.30;;;1.60;;
71046;SDS011;58703;48.978;8.982;2023-08-08T03:27:58;2.97;;;1.10;;
71046;SDS011;58703;48.978;8.982;2023-08-08T03:30:24;3.43;;;1.50;;
71046;SDS011;58703;48.978;8.982;2023-08-08T03:32:49;6.30;;;1.10;;
71046;SDS011;58703;48.978;8.982;2023-08-08T03:35:15;1.40;;;1.30;;
71046;SDS011;58703;48.978;8.982;2023-08-08T03:37:41;3.95;;;1.30;;
71046;SDS011;58703;48.978;8.982;2023-08-08T03:40:07;3.30;;;1.17;;
71046;SDS011;58703;48.978;8.982;2023-08-08T03:42:33;2.20;;;1.50;;
71046;SDS011;58703;48.978;8.982;2023-08-08T03:44:59;3.77;;;1.00;;
71046;SDS011;58703;48.978;8.982;2023-08-08T03:47:25;2.77;;;1.17;;
71046;SDS011;58703;48.978;8.982;2023-08-08T03:49:50;1.73;;;1.10;;
71046;SDS011;58703;48.978;8.982;2023-08-08T03:52:16;4.73;;;1.27;;
71046;SDS011;58703;48.978;8.982;2023-08-08T03:54:42;6.25;;;1.20;;
71046;SDS011;58703;48.978;8.982;2023-08-08T03:57:08;2.58;;;0.82;;
71046;SDS011;58703;48.978;8.982;2023-08-08T03:59:34;1.13;;;1.00;;
71046;SDS011;58703;48.978;8.982;2023-08-08T04:01:59;1.67;;;1.30;;
71046;SDS011;58703;48.978;8.982;2023-08-08T04:04:25;2.25;;;1.10;;
71046;SDS011;58703;48.978;8.982;2023-08-08T04:06:50;1.30;;;1.20;;
71046;SDS011;58703;48.978;8.982;2023-08-08T04:09:16;1.48;;;0.85;;
71046;SDS011;58703;48.978;8.982;2023-08-08T04:11:41;0.93;;;0.80;;
71046;SDS011;58703;48.978;8.982;2023-08-08T04:14:07;2.87;;;1.20;;
71046;SDS011;58703;48.978;8.982;2023-08-08T04:16:33;1.87;;;1.10;;
71046;SDS011;58703;48.978;8.982;2023-08-08T04:18:58;3.57;;;1.07;;
71046;SDS011;58703;48.978;8.982;2023-08-08T04:21:24;2.10;;;1.10;;
71046;SDS011;58703;48.978;8.982;2023-08-08T04:23:52;2.60;;;1.20;;
71046;SDS011;58703;48.978;8.982;2023-08-08T04:26:18;5.82;;;1.17;;
71046;SDS011;58703;48.978;8.982;2023-08-08T04:28:43;2.43;;;1.40;;
71046;SDS011;58703;48.978;8.982;2023-08-08T04:31:09;1.77;;;1.42;;
71046;SDS011;58703;48.978;8.982;2023-08-08T04:33:34;3.63;;;1.50;;
71046;SDS011;58703;48.978;8.982;2023-08-08T04:36:00;4.37;;;1.20;;
71046;SDS011;58703;48.978;8.982;2023-08-08T04:38:25;1.90;;;1.47;;
71046;SDS011;58703;48.978;8.982;2023-08-08T04:40:51;2.38;;;1.50;;
71046;SDS011;58703;48.978;8.982;2023-08-08T04:43:17;3.17;;;1.60;;
71046;SDS011;58703;48.978;8.982;2023-08-08T04:45:42;7.32;;;2.20;;
71046;SDS011;58703;48.978;8.982;2023-08-08T04:48:08;5.20;;;1.93;;
71046;SDS011;58703;48.978;8.982;2023-08-08T04:50:33;4.50;;;2.00;;
71046;SDS011;58703;48.978;8.982;2023-08-08T04:52:59;5.43;;;1.90;;
71046;SDS011;58703;48.978;8.982;2023-08-08T04:55:24;3.10;;;1.60;;
71046;SDS011;58703;48.978;8.982;2023-08-08T04:57:50;9.17;;;1.80;;
71046;SDS011;58703;48.978;8.982;2023-08-08T05:00:16;2.45;;;1.27;;
71046;SDS011;58703;48.978;8.982;2023-08-08T05:02:41;4.83;;;1.60;;
71046;SDS011;58703;48.978;8.982;2023-08-08T05:05:07;2.13;;;1.20;;
71046;SDS011;58703;48.978;8.982;2023-08-08T05:07:33;1.33;;;1.23;;
71046;SDS011;58703;48.978;8.982;2023-08-08T05:10:01;1.98;;;1.20;;
71046;SDS011;58703;48.978;8.982;2023-08-08T05:12:27;2.08;;;1.38;;
71046;SDS011;58703;48.978;8.982;2023-08-08T05:14:53;3.80;;;1.43;;
71046;SDS011;58703;48.978;8.982;2023-08-08T05:17:19;2.22;;;1.40;;
71046;SDS011;58703;48.978;8.982;2023-08-08T05:19:44;1.73;;;1.40;;
71046;SDS011;58703;48.978;8.982;2023-08-08T05:22:10;3.63;;;1.30;;
71046;SDS011;58703;48.978;8.982;2023-08-08T05:24:35;2.95;;;1.20;;
71046;SDS011;58703;48.978;8.982;2023-08-08T05:27:01;3.30;;;1.30;;
71046;SDS011;58703;48.978;8.982;2023-08-08T05:29:28;1.98;;;1.67;;
71046;SDS011;58703;48.978;8.982;2023-08-08T05:31:53;3.27;;;1.20;;
71046;SDS011;58703;48.978;8.982;2023-08-08T05:34:19;3.63;;;1.23;;
71046;SDS011;58703;48.978;8.982;2023-08-08T05:36:45;2.08;;;1.15;;
71046;SDS011;58703;48.978;8.982;2023-08-08T05:39:10;1.63;;;1.23;;
71046;SDS011;58703;48.978;8.982;2023-08-08T05:41:36;2.33;;;1.13;;
71046;SDS011;58703;48.978;8.982;2023-08-08T05:44:01;1.45;;;1.05;;
71046;SDS011;58703;48.978;8.982;2023-08-08T05:46:27;2.53;;;0.83;;
71046;SDS011;58703;48.978;8.982;2023-08-08T05:48:52;4.60;;;1.10;;
71046;SDS011;58703;48.978;8.982;2023-08-08T05:51:18;1.73;;;0.80;;
71046;SDS011;58703;48.978;8.982;2023-08-08T05:53:44;0.83;;;0.73;;
71046;SDS011;58703;48.978;8.982;2023-08-08T05:56:09;2.63;;;0.60;;
71046;SDS011;58703;48.978;8.982;2023-08-08T05:58:35;1.20;;;0.73;;
71046;SDS011;58703;48.978;8.982;2023-08-08T06:01:02;2.25;;;0.70;;
71046;SDS011;58703;48.978;8.982;2023-08-08T06:03:31;1.42;;;0.50;;
71046;SDS011;58703;48.978;8.982;2023-08-08T06:05:57;1.45;;;0.57;;
71046;SDS011;58703;48.978;8.982;2023-08-08T06:08:23;1.10;;;0.60;;
71046;SDS011;58703;48.978;8.982;2023-08-08T06:10:48;2.10;;;0.70;;
71046;SDS011;58703;48.978;8.982;2023-08-08T06:13:14;2.63;;;0.90;;
71046;SDS011;58703;48.978;8.982;2023-08-08T06:15:39;5.07;;;0.50;;
71046;SDS011;58703;48.978;8.982;2023-08-08T06:18:05;1.13;;;0.70;;
71046;SDS011;58703;48.978;8.982;2023-08-08T06:20:31;1.10;;;0.52;;
71046;SDS011;58703;48.978;8.982;2023-08-08T06:22:57;2.85;;;0.68;;
71046;SDS011;58703;48.978;8.982;2023-08-08T06:25:22;3.60;;;0.57;;
71046;SDS011;58703;48.978;8.982;2023-08-08T06:27:48;1.70;;;0.60;;
71046;SDS011;58703;48.978;8.982;2023-08-08T06:30:14;2.55;;;0.60;;
71046;SDS011;58703;48.978;8.982;2023-08-08T06:32:40;2.10;;;0.63;;
71046;SDS011;58703;48.978;8.982;2023-08-08T06:35:06;1.90;;;0.47;;
71046;SDS011;58703;48.978;8.982;2023-08-08T06:37:32;2.80;;;0.80;;
71046;SDS011;58703;48.978;8.982;2023-08-08T06:39:58;3.53;;;0.80;;
71046;SDS011;58703;48.978;8.982;2023-08-08T06:42:23;1.60;;;0.40;;
71046;SDS011;58703;48.978;8.982;2023-08-08T06:44:49;2.30;;;0.87;;
71046;SDS011;58703;48.978;8.982;2023-08-08T06:47:14;3.75;;;0.70;;
71046;SDS011;58703;48.978;8.982;2023-08-08T06:49:40;1.53;;;0.60;;
71046;SDS011;58703;48.978;8.982;2023-08-08T06:52:05;2.33;;;0.47;;
71046;SDS011;58703;48.978;8.982;2023-08-08T06:54:31;1.90;;;0.60;;
71046;SDS011;58703;48.978;8.982;2023-08-08T06:56:57;1.13;;;0.70;;
71046;SDS011;58703;48.978;8.982;2023-08-08T06:59:23;1.83;;;0.73;;
71046;SDS011;58703;48.978;8.982;2023-08-08T07:01:50;1.90;;;0.68;;
71046;SDS011;58703;48.978;8.982;2023-08-08T07:04:17;2.72;;;0.73;;
71046;SDS011;58703;48.978;8.982;2023-08-08T07:06:43;2.97;;;0.80;;
71046;SDS011;58703;48.978;8.982;2023-08-08T07:09:10;1.77;;;0.50;;
71046;SDS011;58703;48.978;8.982;2023-08-08T07:11:36;2.10;;;0.50;;
71046;SDS011;58703;48.978;8.982;2023-08-08T07:14:03;2.25;;;0.75;;
71046;SDS011;58703;48.978;8.982;2023-08-08T07:16:28;2.08;;;0.60;;
71046;SDS011;58703;48.978;8.982;2023-08-08T07:18:54;1.97;;;0.60;;
71046;SDS011;58703;48.978;8.982;2023-08-08T07:21:20;1.17;;;0.67;;
71046;SDS011;58703;48.978;8.982;2023-08-08T07:23:47;1.38;;;0.60;;
71046;SDS011;58703;48.978;8.982;2023-08-08T07:26:13;1.13;;;0.55;;
71046;SDS011;58703;48.978;8.982;2023-08-08T07:28:39;1.43;;;0.53;;
71046;SDS011;58703;48.978;8.982;2023-08-08T07:31:05;1.52;;;0.50;;
71046;SDS011;58703;48.978;8.982;2023-08-08T07:33:31;4.05;;;0.70;;
71046;SDS011;58703;48.978;8.982;2023-08-08T07:35:57;3.07;;;0.90;;
71046;SDS011;58703;48.978;8.982;2023-08-08T07:38:22;2.20;;;0.77;;
71046;SDS011;58703;48.978;8.982;2023-08-08T07:40:48;2.40;;;0.60;;
71046;SDS011;58703;48.978;8.982;2023-08-08T07:43:14;2.15;;;0.60;;
71046;SDS011;58703;48.978;8.982;2023-08-08T07:45:39;1.77;;;0.60;;
71046;SDS011;58703;48.978;8.982;2023-08-08T07:48:05;1.67;;;0.68;;
71046;SDS011;58703;48.978;8.982;2023-08-08T07:50:31;1.60;;;0.53;;
71046;SDS011;58703;48.978;8.982;2023-08-08T07:52:56;2.25;;;0.90;;
71046;SDS011;58703;48.978;8.982;2023-08-08T07:55:22;3.93;;;0.60;;
71046;SDS011;58703;48.978;8.982;2023-08-08T07:57:48;1.20;;;0.35;;
71046;SDS011;58703;48.978;8.982;2023-08-08T08:00:13;1.70;;;0.60;;
71046;SDS011;58703;48.978;8.982;2023-08-08T08:02:40;1.50;;;0.70;;
71046;SDS011;58703;48.978;8.982;2023-08-08T08:05:07;2.47;;;0.63;;
71046;SDS011;58703;48.978;8.982;2023-08-08T08:07:33;0.93;;;0.40;;
71046;SDS011;58703;48.978;8.982;2023-08-08T08:10:00;2.05;;;0.47;;
71046;SDS011;58703;48.978;8.982;2023-08-08T08:12:30;1.80;;;0.55;;
71046;SDS011;58703;48.978;8.982;2023-08-08T08:14:56;2.70;;;0.30;;
71046;SDS011;58703;48.978;8.982;2023-08-08T08:17:22;1.33;;;0.80;;
71046;SDS011;58703;48.978;8.982;2023-08-08T08:19:47;1.23;;;0.63;;
71046;SDS011;58703;48.978;8.982;2023-08-08T08:22:15;1.35;;;0.57;;
71046;SDS011;58703;48.978;8.982;2023-08-08T08:24:40;3.20;;;0.60;;
71046;SDS011;58703;48.978;8.982;2023-08-08T08:27:06;1.93;;;0.60;;
71046;SDS011;58703;48.978;8.982;2023-08-08T08:29:32;1.75;;;0.40;;
71046;SDS011;58703;48.978;8.982;2023-08-08T08:31:58;1.95;;;0.55;;
71046;SDS011;58703;48.978;8.982;2023-08-08T08:34:25;2.90;;;0.60;;
71046;SDS011;58703;48.978;8.982;2023-08-08T08:36:51;1.75;;;0.88;;
71046;SDS011;58703;48.978;8.982;2023-08-08T08:39:16;1.10;;;0.50;;
71046;SDS011;58703;48.978;8.982;2023-08-08T08:41:41;2.80;;;0.82;;
71046;SDS011;58703;48.978;8.982;2023-08-08T08:44:14;1.70;;;0.50;;
71046;SDS011;58703;48.978;8.982;2023-08-08T08:46:41;3.55;;;0.52;;
71046;SDS011;58703;48.978;8.982;2023-08-08T08:49:07;2.45;;;0.68;;
71046;SDS011;58703;48.978;8.982;2023-08-08T08:51:39;1.25;;;0.60;;
71046;SDS011;58703;48.978;8.982;2023-08-08T08:54:04;0.63;;;0.43;;
71046;SDS011;58703;48.978;8.982;2023-08-08T08:56:31;2.33;;;0.50;;
71046;SDS011;58703;48.978;8.982;2023-08-08T08:58:58;1.95;;;0.60;;
71046;SDS011;58703;48.978;8.982;2023-08-08T09:01:24;2.10;;;0.52;;
71046;SDS011;58703;48.978;8.982;2023-08-08T09:03:50;0.97;;;0.40;;
71046;SDS011;58703;48.978;8.982;2023-08-08T09:06:16;1.77;;;0.70;;
71046;SDS011;58703;48.978;8.982;2023-08-08T09:08:44;1.67;;;0.68;;
71046;SDS011;58703;48.978;8.982;2023-08-08T09:11:11;2.33;;;0.70;;
71046;SDS011;58703;48.978;8.982;2023-08-08T09:13:39;1.57;;;0.77;;
71046;SDS011;58703;48.978;8.982;2023-08-08T09:16:08;2.60;;;0.80;;
71046;SDS011;58703;48.978;8.982;2023-08-08T09:18:34;3.20;;;0.65;;
71046;SDS011;58703;48.978;8.982;2023-08-08T09:21:03;1.58;;;0.68;;
71046;SDS011;58703;48.978;8.982;2023-08-08T09:23:29;2.47;;;0.73;;
71046;SDS011;58703;48.978;8.982;2023-08-08T09:25:55;2.13;;;0.73;;
71046;SDS011;58703;48.978;8.982;2023-08-08T09:28:21;1.50;;;0.30;;
71046;SDS011;58703;48.978;8.982;2023-08-08T09:30:48;1.25;;;0.40;;
71046;SDS011;58703;48.978;8.982;2023-08-08T09:33:14;1.20;;;0.60;;
71046;SDS011;58703;48.978;8.982;2023-08-08T09:35:40;2.28;;;0.68;;
71046;SDS011;58703;48.978;8.982;2023-08-08T09:38:06;1.07;;;0.40;;
71046;SDS011;58703;48.978;8.982;2023-08-08T09:40:32;1.13;;;0.40;;
71046;SDS011;58703;48.978;8.982;2023-08-08T09:42:58;1.00;;;0.50;;
71046;SDS011;58703;48.978;8.982;2023-08-08T09:45:23;1.07;;;0.40;;
71046;SDS011;58703;48.978;8.982;2023-08-08T09:47:50;2.85;;;0.70;;
71046;SDS011;58703;48.978;8.982;2023-08-08T09:50:17;3.22;;;0.50;;
71046;SDS011;58703;48.978;8.982;2023-08-08T09:52:45;3.10;;;0.63;;
71046;SDS011;58703;48.978;8.982;2023-08-08T09:55:12;1.67;;;0.43;;
71046;SDS011;58703;48.978;8.982;2023-08-08T09:57:41;0.73;;;0.45;;
71046;SDS011;58703;48.978;8.982;2023-08-08T10:00:07;3.33;;;0.52;;
71046;SDS011;58703;48.978;8.982;2023-08-08T10:02:37;1.23;;;0.30;;
71046;SDS011;58703;48.978;8.982;2023-08-08T10:05:04;0.90;;;0.73;;
71046;SDS011;58703;48.978;8.982;2023-08-08T10:07:29;1.13;;;0.50;;
71046;SDS011;58703;48.978;8.982;2023-08-08T10:09:55;2.90;;;0.75;;
71046;SDS011;58703;48.978;8.982;2023-08-08T10:12:22;1.90;;;0.60;;
71046;SDS011;58703;48.978;8.982;2023-08-08T10:14:50;2.78;;;0.88;;
71046;SDS011;58703;48.978;8.982;2023-08-08T10:17:17;0.40;;;0.40;;
71046;SDS011;58703;48.978;8.982;2023-08-08T10:19:56;0.88;;;0.52;;
71046;SDS011;58703;48.978;8.982;2023-08-08T10:22:22;1.20;;;0.93;;
71046;SDS011;58703;48.978;8.982;2023-08-08T10:24:52;0.87;;;0.70;;
71046;SDS011;58703;48.978;8.982;2023-08-08T10:27:30;2.15;;;0.65;;
71046;SDS011;58703;48.978;8.982;2023-08-08T10:30:00;3.80;;;0.45;;
71046;SDS011;58703;48.978;8.982;2023-08-08T10:32:39;1.58;;;0.75;;
71046;SDS011;58703;48.978;8.982;2023-08-08T10:35:06;1.75;;;0.82;;
71046;SDS011;58703;48.978;8.982;2023-08-08T10:37:33;2.17;;;0.53;;
71046;SDS011;58703;48.978;8.982;2023-08-08T10:39:59;2.00;;;0.55;;
71046;SDS011;58703;48.978;8.982;2023-08-08T10:42:26;3.13;;;0.77;;
71046;SDS011;58703;48.978;8.982;2023-08-08T10:44:53;2.70;;;0.60;;
71046;SDS011;58703;48.978;8.982;2023-08-08T10:47:21;2.42;;;0.52;;
71046;SDS011;58703;48.978;8.982;2023-08-08T10:55:27;4.30;;;0.80;;
71046;SDS011;58703;48.978;8.982;2023-08-08T10:58:07;1.57;;;0.67;;
71046;SDS011;58703;48.978;8.982;2023-08-08T11:00:35;1.20;;;0.65;;
71046;SDS011;58703;48.978;8.982;2023-08-08T11:03:05;3.05;;;0.52;;
71046;SDS011;58703;48.978;8.982;2023-08-08T11:05:31;1.60;;;0.55;;
71046;SDS011;58703;48.978;8.982;2023-08-08T11:07:58;0.60;;;0.40;;
71046;SDS011;58703;48.978;8.982;2023-08-08T11:10:24;2.57;;;0.70;;
71046;SDS011;58703;48.978;8.982;2023-08-08T11:12:56;1.30;;;0.70;;
71046;SDS011;58703;48.978;8.982;2023-08-08T11:15:23;1.92;;;0.60;;
71046;SDS011;58703;48.978;8.982;2023-08-08T11:17:49;1.97;;;0.60;;
71046;SDS011;58703;48.978;8.982;2023-08-08T11:20:15;2.00;;;0.70;;
71046;SDS011;58703;48.978;8.982;2023-08-08T11:22:42;0.60;;;0.40;;
71046;SDS011;58703;48.978;8.982;2023-08-08T11:25:07;1.47;;;0.50;;
71046;SDS011;58703;48.978;8.982;2023-08-08T11:27:33;1.45;;;0.60;;
71046;SDS011;58703;48.978;8.982;2023-08-08T11:29:59;2.05;;;0.65;;
71046;SDS011;58703;48.978;8.982;2023-08-08T11:32:27;0.80;;;0.60;;
71046;SDS011;58703;48.978;8.982;2023-08-08T11:34:54;1.27;;;0.65;;
71046;SDS011;58703;48.978;8.982;2023-08-08T11:37:20;1.08;;;0.68;;
71046;SDS011;58703;48.978;8.982;2023-08-08T11:39:47;0.57;;;0.40;;
71046;SDS011;58703;48.978;8.982;2023-08-08T11:42:13;2.60;;;0.90;;
71046;SDS011;58703;48.978;8.982;2023-08-08T11:44:38;1.42;;;0.90;;
71046;SDS011;58703;48.978;8.982;2023-08-08T11:47:05;3.10;;;0.83;;
71046;SDS011;58703;48.978;8.982;2023-08-08T11:49:38;1.55;;;0.65;;
71046;SDS011;58703;48.978;8.982;2023-08-08T11:52:06;3.63;;;0.70;;
71046;SDS011;58703;48.978;8.982;2023-08-08T11:54:32;1.20;;;0.65;;
71046;SDS011;58703;48.978;8.982;2023-08-08T11:56:59;2.43;;;0.70;;
71046;SDS011;58703;48.978;8.982;2023-08-08T11:59:26;2.10;;;0.90;;
71046;SDS011;58703;48.978;8.982;2023-08-08T12:01:52;0.60;;;0.60;;
71046;SDS011;58703;48.978;8.982;2023-08-08T12:04:19;2.05;;;0.63;;
71046;SDS011;58703;48.978;8.982;2023-08-08T12:06:45;4.07;;;0.50;;
71046;SDS011;58703;48.978;8.982;2023-08-08T12:09:12;1.50;;;0.30;;
71046;SDS011;58703;48.978;8.982;2023-08-08T12:11:40;1.77;;;0.80;;
71046;SDS011;58703;48.978;8.982;2023-08-08T12:14:09;2.70;;;0.52;;
71046;SDS011;58703;48.978;8.982;2023-08-08T12:16:36;0.97;;;0.50;;
71046;SDS011;58703;48.978;8.982;2023-08-08T12:19:04;0.75;;;0.47;;
71046;SDS011;58703;48.978;8.982;2023-08-08T12:21:34;1.15;;;0.30;;
71046;SDS011;58703;48.978;8.982;2023-08-08T12:24:00;0.80;;;0.47;;
71046;SDS011;58703;48.978;8.982;2023-08-08T12:26:26;1.10;;;0.70;;
71046;SDS011;58703;48.978;8.982;2023-08-08T12:28:51;1.50;;;0.40;;
71046;SDS011;58703;48.978;8.982;2023-08-08T12:31:19;0.80;;;0.32;;
71046;SDS011;58703;48.978;8.982;2023-08-08T12:33:45;0.88;;;0.38;;
71046;SDS011;58703;48.978;8.982;2023-08-08T12:36:10;0.73;;;0.43;;
71046;SDS011;58703;48.978;8.982;2023-08-08T12:38:37;1.40;;;0.53;;
71046;SDS011;58703;48.978;8.982;2023-08-08T12:41:02;1.38;;;0.30;;
71046;SDS011;58703;48.978;8.982;2023-08-08T12:43:28;0.20;;;0.17;;
71046;SDS011;58703;48.978;8.982;2023-08-08T12:45:54;2.33;;;0.30;;
71046;SDS011;58703;48.978;8.982;2023-08-08T12:48:20;0.97;;;0.57;;
71046;SDS011;58703;48.978;8.982;2023-08-08T12:50:45;0.40;;;0.40;;
71046;SDS011;58703;48.978;8.982;2023-08-08T12:53:11;2.15;;;0.50;;
71046;SDS011;58703;48.978;8.982;2023-08-08T12:55:36;2.03;;;0.67;;
71046;SDS011;58703;48.978;8.982;2023-08-08T12:58:04;1.38;;;0.57;;
71046;SDS011;58703;48.978;8.982;2023-08-08T13:00:30;3.83;;;0.40;;
71046;SDS011;58703;48.978;8.982;2023-08-08T13:02:55;0.60;;;0.50;;
71046;SDS011;58703;48.978;8.982;2023-08-08T13:05:21;2.88;;;0.50;;
71046;SDS011;58703;48.978;8.982;2023-08-08T13:07:47;1.87;;;0.70;;
71046;SDS011;58703;48.978;8.982;2023-08-08T13:10:13;0.77;;;0.55;;
71046;SDS011;58703;48.978;8.982;2023-08-08T13:12:38;1.60;;;0.33;;
71046;SDS011;58703;48.978;8.982;2023-08-08T13:15:04;1.50;;;0.70;;
71046;SDS011;58703;48.978;8.982;2023-08-08T13:17:30;0.63;;;0.47;;
71046;SDS011;58703;48.978;8.982;2023-08-08T13:19:56;1.55;;;0.30;;
71046;SDS011;58703;48.978;8.982;2023-08-08T13:22:22;0.80;;;0.67;;
71046;SDS011;58703;48.978;8.982;2023-08-08T13:24:48;0.95;;;0.45;;
71046;SDS011;58703;48.978;8.982;2023-08-08T13:27:13;2.27;;;0.60;;
71046;SDS011;58703;48.978;8.982;2023-08-08T13:29:39;1.30;;;0.70;;
71046;SDS011;58703;48.978;8.982;2023-08-08T13:32:04;1.20;;;0.60;;
71046;SDS011;58703;48.978;8.982;2023-08-08T13:34:30;2.03;;;0.70;;
71046;SDS011;58703;48.978;8.982;2023-08-08T13:36:55;1.87;;;1.10;;
71046;SDS011;58703;48.978;8.982;2023-08-08T13:39:21;2.53;;;0.80;;
71046;SDS011;58703;48.978;8.982;2023-08-08T13:41:47;1.67;;;0.57;;
71046;SDS011;58703;48.978;8.982;2023-08-08T13:44:12;0.77;;;0.75;;
71046;SDS011;58703;48.978;8.982;2023-08-08T13:46:38;1.40;;;0.50;;
71046;SDS011;58703;48.978;8.982;2023-08-08T13:49:03;1.33;;;0.70;;
71046;SDS011;58703;48.978;8.982;2023-08-08T13:51:29;2.22;;;1.15;;
71046;SDS011;58703;48.978;8.982;2023-08-08T13:53:55;1.23;;;0.73;;
71046;SDS011;58703;48.978;8.982;2023-08-08T13:56:20;1.75;;;0.77;;
71046;SDS011;58703;48.978;8.982;2023-08-08T13:58:46;3.03;;;1.20;;
71046;SDS011;58703;48.978;8.982;2023-08-08T14:01:11;2.33;;;0.63;;
71046;SDS011;58703;48.978;8.982;2023-08-08T14:03:37;1.43;;;0.83;;
71046;SDS011;58703;48.978;8.982;2023-08-08T14:06:02;1.17;;;1.07;;
71046;SDS011;58703;48.978;8.982;2023-08-08T14:08:28;1.80;;;0.70;;
71046;SDS011;58703;48.978;8.982;2023-08-08T14:10:53;1.75;;;0.90;;
71046;SDS011;58703;48.978;8.982;2023-08-08T14:13:19;0.90;;;0.43;;
71046;SDS011;58703;48.978;8.982;2023-08-08T14:15:46;3.05;;;0.60;;
71046;SDS011;58703;48.978;8.982;2023-08-08T14:18:13;0.90;;;0.70;;
71046;SDS011;58703;48.978;8.982;2023-08-08T14:20:38;0.80;;;0.70;;
71046;SDS011;58703;48.978;8.982;2023-08-08T14:23:04;1.90;;;0.60;;
71046;SDS011;58703;48.978;8.982;2023-08-08T14:25:29;0.80;;;0.80;;
71046;SDS011;58703;48.978;8.982;2023-08-08T14:27:55;0.90;;;0.73;;
71046;SDS011;58703;48.978;8.982;2023-08-08T14:30:22;2.30;;;0.88;;
71046;SDS011;58703;48.978;8.982;2023-08-08T14:32:48;1.70;;;0.70;;
71046;SDS011;58703;48.978;8.982;2023-08-08T14:35:13;2.10;;;0.70;;
71046;SDS011;58703;48.978;8.982;2023-08-08T14:37:39;2.47;;;0.77;;
71046;SDS011;58703;48.978;8.982;2023-08-08T14:40:05;1.00;;;0.90;;
71046;SDS011;58703;48.978;8.982;2023-08-08T14:42:31;2.20;;;0.70;;
71046;SDS011;58703;48.978;8.982;2023-08-08T14:44:57;1.20;;;0.60;;
71046;SDS011;58703;48.978;8.982;2023-08-08T14:47:22;1.27;;;0.40;;
71046;SDS011;58703;48.978;8.982;2023-08-08T14:49:48;1.27;;;0.70;;
71046;SDS011;58703;48.978;8.982;2023-08-08T14:52:16;1.05;;;0.45;;